createdAt,value
2022-11-16T00:00:52.692Z,80.80
2022-11-16T00:05:53.439Z,75.90
2022-11-16T00:10:54.134Z,76.70
2022-11-16T00:15:54.852Z,76.30
2022-11-16T00:20:55.597Z,72.80
2022-11-16T00:25:56.287Z,72.00
2022-11-16T00:30:57.020Z,75.60
2022-11-16T00:35:57.778Z,72.30
2022-11-16T00:40:58.495Z,69.90
2022-11-16T00:45:59.254Z,74.80
2022-11-16T00:50:59.936Z,66.90
2022-11-16T00:56:00.685Z,63.30
2022-11-16T01:01:01.484Z,62.60
2022-11-16T01:06:02.215Z,74.00
2022-11-16T01:11:02.979Z,64.70
2022-11-16T01:16:03.661Z,60.20
2022-11-16T01:21:04.386Z,65.40
2022-11-16T01:26:05.115Z,59.80
2022-11-16T01:31:05.850Z,59.00
2022-11-16T01:36:06.553Z,64.60
2022-11-16T01:41:07.273Z,63.20
2022-11-16T01:46:07.997Z,63.40
2022-11-16T01:51:08.739Z,71.20
2022-11-16T01:56:09.528Z,67.90
2022-11-16T02:01:10.287Z,65.80
2022-11-16T02:06:11.037Z,65.00
2022-11-16T02:11:11.737Z,74.40
2022-11-16T02:16:12.470Z,64.30
2022-11-16T02:21:13.211Z,70.70
2022-11-16T02:26:13.916Z,81.50
2022-11-16T02:31:14.647Z,71.50
2022-11-16T02:36:15.369Z,64.60
2022-11-16T02:41:16.128Z,73.80
2022-11-16T02:46:16.832Z,73.90
2022-11-16T02:51:17.548Z,82.60
2022-11-16T02:56:18.289Z,78.00
2022-11-16T03:01:19.131Z,80.60
2022-11-16T03:06:19.831Z,78.80
2022-11-16T03:11:20.561Z,87.40
2022-11-16T03:16:21.585Z,84.40
2022-11-16T03:21:22.331Z,83.60
2022-11-16T03:26:23.077Z,78.10
2022-11-16T03:31:23.823Z,82.20
2022-11-16T03:36:24.609Z,87.30
2022-11-16T03:41:25.374Z,79.50
2022-11-16T03:46:26.098Z,78.50
2022-11-16T03:51:26.841Z,85.60
2022-11-16T03:56:27.548Z,89.00
2022-11-16T04:01:28.290Z,86.10
2022-11-16T04:06:28.998Z,102.20
2022-11-16T04:11:29.739Z,100.10
2022-11-16T04:16:30.439Z,100.10
2022-11-16T04:21:31.168Z,98.60
2022-11-16T04:26:31.896Z,96.30
2022-11-16T04:31:32.631Z,102.30
2022-11-16T04:36:40.350Z,111.30
2022-11-16T04:41:34.067Z,109.30
2022-11-16T04:46:34.797Z,120.30
2022-11-16T04:51:35.591Z,121.40
2022-11-16T04:56:36.307Z,116.50
2022-11-16T05:01:37.086Z,130.10
2022-11-16T05:06:37.743Z,127.80
2022-11-16T05:11:38.460Z,128.10
2022-11-16T05:16:39.248Z,132.60
2022-11-16T05:21:39.978Z,127.40
2022-11-16T05:32:29.371Z,134.40
2022-11-16T05:37:30.101Z,130.90
2022-11-16T05:42:30.836Z,129.60
2022-11-16T05:47:31.579Z,125.30
2022-11-16T05:52:32.290Z,123.40
2022-11-16T05:57:32.977Z,128.60
2022-11-16T06:02:33.775Z,126.40
2022-11-16T06:07:34.521Z,124.00
2022-11-16T06:12:35.163Z,128.50
2022-11-16T06:17:36.094Z,134.30
2022-11-16T06:22:36.671Z,128.50
2022-11-16T06:27:37.341Z,128.90
2022-11-16T06:32:37.998Z,128.30
2022-11-16T06:37:39.002Z,138.20
2022-11-16T06:42:39.609Z,140.80
2022-11-16T06:47:40.263Z,140.00
2022-11-16T06:52:40.915Z,127.20
2022-11-16T06:57:41.594Z,124.10
2022-11-16T07:02:42.232Z,127.10
2022-11-16T07:07:42.889Z,127.70
2022-11-16T07:12:43.537Z,125.90
2022-11-16T07:17:44.207Z,132.80
2022-11-16T07:22:44.848Z,132.40
2022-11-16T07:27:45.529Z,131.90
2022-11-16T07:32:46.195Z,132.80
2022-11-16T07:37:46.869Z,137.70
2022-11-16T07:42:47.506Z,130.00
2022-11-16T07:47:48.154Z,137.30
2022-11-16T07:52:48.829Z,134.10
2022-11-16T07:57:53.247Z,143.20
2022-11-16T08:02:50.305Z,139.50
2022-11-16T08:07:50.982Z,130.00
2022-11-16T08:12:51.641Z,131.00
2022-11-16T08:17:52.307Z,119.60
2022-11-16T08:22:52.959Z,119.60
2022-11-16T08:27:53.678Z,121.80
2022-11-16T08:32:54.318Z,117.60
2022-11-16T08:37:55.087Z,112.30
2022-11-16T08:42:55.673Z,113.40
2022-11-16T08:48:03.515Z,103.00
2022-11-16T08:52:57.984Z,103.30
2022-11-16T08:57:57.586Z,101.10
2022-11-16T09:02:58.246Z,95.40
2022-11-16T09:07:58.904Z,92.40
2022-11-16T09:12:59.674Z,91.90
2022-11-16T09:18:00.283Z,78.60
2022-11-16T09:23:02.200Z,71.10
2022-11-16T09:28:01.826Z,55.80
2022-11-16T09:33:03.508Z,52.30
2022-11-16T09:38:03.154Z,49.00
2022-11-16T09:43:04.038Z,51.70
2022-11-16T09:48:04.698Z,47.90
2022-11-16T09:53:05.609Z,50.80
2022-11-16T09:58:06.198Z,56.50
2022-11-16T10:03:06.904Z,57.20
2022-11-16T10:08:07.560Z,58.00
2022-11-16T10:13:08.283Z,59.50
2022-11-16T10:18:08.932Z,57.30
2022-11-16T10:23:09.620Z,55.70
2022-11-16T10:28:10.267Z,50.90
2022-11-16T10:33:11.533Z,56.90
2022-11-16T10:38:18.740Z,57.60
2022-11-16T10:43:12.380Z,63.20
2022-11-16T10:48:13.128Z,61.00
2022-11-16T10:53:13.769Z,60.30
2022-11-16T10:58:14.588Z,61.10
2022-11-16T11:03:15.208Z,61.50
2022-11-16T11:08:16.070Z,60.60
2022-11-16T11:13:18.730Z,64.60
2022-11-16T11:18:17.413Z,61.30
2022-11-16T11:23:18.084Z,66.00
2022-11-16T11:28:18.771Z,63.90
2022-11-16T11:33:19.470Z,63.30
2022-11-16T11:38:20.168Z,59.80
2022-11-16T11:43:21.822Z,60.60
2022-11-16T11:48:21.578Z,64.70
2022-11-16T11:53:22.163Z,64.30
2022-11-16T11:58:22.897Z,62.10
2022-11-16T12:03:23.625Z,59.50
2022-11-16T12:08:24.391Z,61.20
2022-11-16T12:13:25.051Z,60.90
2022-11-16T12:18:25.685Z,57.80
2022-11-16T12:23:26.402Z,55.70
2022-11-16T12:28:27.095Z,51.00
2022-11-16T12:33:28.553Z,51.20
2022-11-16T12:38:28.324Z,51.40
2022-11-16T12:43:29.442Z,51.20
2022-11-16T12:48:29.816Z,50.40
2022-11-16T12:53:30.440Z,45.90
2022-11-16T12:58:31.115Z,46.60
2022-11-16T13:03:32.293Z,47.40
2022-11-16T13:08:32.652Z,41.60
2022-11-16T13:13:49.628Z,43.00
2022-11-16T13:18:34.983Z,39.90
2022-11-16T13:23:35.001Z,38.20
2022-11-16T13:28:35.774Z,41.10
2022-11-16T13:33:36.478Z,37.90
2022-11-16T13:38:37.222Z,38.40
2022-11-16T13:43:37.815Z,34.50
2022-11-16T13:48:39.505Z,35.70
2022-11-16T13:58:40.795Z,35.90
2022-11-16T14:03:40.430Z,34.30
2022-11-16T14:08:41.075Z,34.70
2022-11-16T14:13:41.742Z,32.80
2022-11-16T14:18:42.523Z,31.50
2022-11-16T14:23:43.460Z,32.90
2022-11-16T14:28:43.752Z,33.80
2022-11-16T14:33:44.532Z,34.80
2022-11-16T14:38:45.155Z,31.10
2022-11-16T14:43:45.813Z,32.80
2022-11-16T14:48:46.503Z,33.60
2022-11-16T14:53:47.140Z,31.90
2022-11-16T14:58:47.790Z,33.20
2022-11-16T15:03:48.680Z,30.20
2022-11-16T15:08:49.340Z,31.40
2022-11-16T15:13:49.990Z,32.60
2022-11-16T15:18:50.774Z,27.70
2022-11-16T15:24:15.451Z,28.70
2022-11-16T15:28:52.998Z,25.10
2022-11-16T15:33:52.822Z,24.40
2022-11-16T15:38:54.486Z,21.90
2022-11-16T15:44:14.431Z,23.00
2022-11-16T15:48:55.924Z,20.90
2022-11-16T15:53:55.566Z,21.80
2022-11-16T15:58:56.210Z,20.50
2022-11-16T16:03:56.930Z,21.50
2022-11-16T16:08:57.767Z,20.40
2022-11-16T16:13:58.461Z,24.40
2022-11-16T16:18:59.175Z,26.40
2022-11-16T16:24:00.172Z,28.40
2022-11-16T16:29:00.872Z,25.40
2022-11-16T16:34:01.664Z,25.50
2022-11-16T16:39:02.390Z,25.30
2022-11-16T16:44:03.146Z,24.20
2022-11-16T16:49:03.886Z,23.30
2022-11-16T16:54:04.758Z,24.30
2022-11-16T16:59:05.414Z,26.20
2022-11-16T17:04:06.272Z,24.50
2022-11-16T17:09:07.025Z,23.90
2022-11-16T17:14:07.879Z,22.50
2022-11-16T17:19:08.513Z,23.00
2022-11-16T17:24:09.297Z,20.70
2022-11-16T17:29:10.100Z,20.80
2022-11-16T17:34:13.774Z,20.40
2022-11-16T17:39:11.709Z,20.20
2022-11-16T17:44:14.955Z,18.40
2022-11-16T17:49:14.221Z,17.40
2022-11-16T17:54:13.895Z,17.60
2022-11-16T17:59:14.603Z,17.10
2022-11-16T18:04:15.322Z,16.00
2022-11-16T18:09:16.067Z,15.10
2022-11-16T18:14:16.818Z,17.30
2022-11-16T18:19:17.554Z,15.60
2022-11-16T18:24:18.266Z,15.30
2022-11-16T18:29:19.085Z,13.60
2022-11-16T18:34:19.887Z,14.70
2022-11-16T18:39:20.617Z,13.60
2022-11-16T18:44:21.452Z,13.00
2022-11-16T18:49:22.187Z,14.50
2022-11-16T18:54:23.441Z,11.40
2022-11-16T18:59:23.790Z,13.30
2022-11-16T19:04:24.633Z,11.40
2022-11-16T19:09:25.332Z,12.10
2022-11-16T19:14:26.241Z,10.60
2022-11-16T19:19:26.908Z,11.70
2022-11-16T19:24:27.668Z,11.30
2022-11-16T19:29:28.397Z,12.50
2022-11-16T19:34:33.337Z,11.00
2022-11-16T19:39:31.899Z,10.20
2022-11-16T19:44:30.929Z,10.90
2022-11-16T19:49:31.132Z,12.20
2022-11-16T19:54:31.957Z,11.20
2022-11-16T19:59:32.696Z,11.00
2022-11-16T20:04:33.551Z,10.50
2022-11-16T20:09:34.203Z,10.70
2022-11-16T20:14:34.971Z,10.80
2022-11-16T20:19:35.703Z,12.40
2022-11-16T20:24:36.623Z,12.60
2022-11-16T20:29:37.319Z,13.30
2022-11-16T20:34:38.055Z,12.70
2022-11-16T20:39:39.582Z,13.20
2022-11-16T20:44:39.237Z,14.70
2022-11-16T20:49:40.103Z,13.20
2022-11-16T20:54:40.815Z,14.30
2022-11-16T20:59:41.685Z,15.00
2022-11-16T21:04:42.339Z,12.80
2022-11-16T21:09:43.095Z,14.60
2022-11-16T21:14:43.811Z,12.70
2022-11-16T21:20:05.509Z,13.00
2022-11-16T21:24:46.145Z,12.40
2022-11-16T21:29:45.890Z,12.70
2022-11-16T21:34:46.653Z,12.60
2022-11-16T21:39:47.531Z,14.30
2022-11-16T21:44:48.308Z,12.50
2022-11-16T21:50:16.930Z,12.40
2022-11-16T21:54:50.773Z,11.40
2022-11-16T21:59:50.544Z,12.40
2022-11-16T22:04:51.258Z,12.10
2022-11-16T22:09:52.004Z,11.80
2022-11-16T22:14:52.762Z,11.90
2022-11-16T22:19:53.551Z,11.80
2022-11-16T22:24:54.288Z,11.40
2022-11-16T22:29:55.188Z,11.30
2022-11-16T22:34:55.982Z,12.10
2022-11-16T22:39:56.707Z,12.90
2022-11-16T22:44:58.147Z,11.90
2022-11-16T22:49:58.315Z,12.00
2022-11-16T22:55:06.359Z,12.90
2022-11-16T22:59:59.622Z,14.80
2022-11-16T23:05:00.286Z,12.60
2022-11-16T23:10:00.992Z,14.40
2022-11-16T23:15:01.867Z,13.20
2022-11-16T23:20:02.635Z,13.50
2022-11-16T23:25:03.335Z,14.60
2022-11-16T23:30:07.931Z,12.80
2022-11-16T23:35:05.863Z,12.80
2022-11-16T23:40:05.503Z,13.60
2022-11-16T23:45:06.227Z,13.90
2022-11-16T23:50:06.978Z,14.30
2022-11-16T23:55:07.818Z,13.80
